sensor_id;sensor_type;location;lat;lon;timestamp;P1;durP1;ratioP1;P2;durP2;ratioP2
22468;SDS011;11401;50.792;4.352;2023-04-07T00:00:43;5.45;;;3.80;;
22468;SDS011;11401;50.792;4.352;2023-04-07T00:03:10;5.97;;;4.05;;
22468;SDS011;11401;50.792;4.352;2023-04-07T00:05:38;9.90;;;4.55;;
22468;SDS011;11401;50.792;4.352;2023-04-07T00:08:05;11.10;;;4.25;;
22468;SDS011;11401;50.792;4.352;2023-04-07T00:10:32;6.30;;;3.95;;
22468;SDS011;11401;50.792;4.352;2023-04-07T00:12:59;9.02;;;4.38;;
22468;SDS011;11401;50.792;4.352;2023-04-07T00:15:27;8.05;;;4.15;;
22468;SDS011;11401;50.792;4.352;2023-04-07T00:17:54;11.43;;;5.07;;
22468;SDS011;11401;50.792;4.352;2023-04-07T00:20:21;9.10;;;4.47;;
22468;SDS011;11401;50.792;4.352;2023-04-07T00:22:48;10.13;;;4.40;;
22468;SDS011;11401;50.792;4.352;2023-04-07T00:25:15;10.20;;;4.53;;
22468;SDS011;11401;50.792;4.352;2023-04-07T00:27:42;7.72;;;4.15;;
22468;SDS011;11401;50.792;4.352;2023-04-07T00:30:10;12.63;;;4.82;;
22468;SDS011;11401;50.792;4.352;2023-04-07T00:32:37;10.85;;;5.10;;
22468;SDS011;11401;50.792;4.352;2023-04-07T00:35:04;7.85;;;4.35;;
22468;SDS011;11401;50.792;4.352;2023-04-07T00:37:32;10.48;;;4.57;;
22468;SDS011;11401;50.792;4.352;2023-04-07T00:39:59;8.45;;;4.50;;
22468;SDS011;11401;50.792;4.352;2023-04-07T00:42:26;9.52;;;4.80;;
22468;SDS011;11401;50.792;4.352;2023-04-07T00:44:53;7.90;;;4.85;;
22468;SDS011;11401;50.792;4.352;2023-04-07T00:47:20;10.48;;;4.53;;
22468;SDS011;11401;50.792;4.352;2023-04-07T00:49:47;6.05;;;3.85;;
22468;SDS011;11401;50.792;4.352;2023-04-07T00:52:14;6.90;;;5.00;;
22468;SDS011;11401;50.792;4.352;2023-04-07T00:54:42;12.38;;;4.68;;
22468;SDS011;11401;50.792;4.352;2023-04-07T00:57:12;12.07;;;5.05;;
22468;SDS011;11401;50.792;4.352;2023-04-07T00:59:39;10.75;;;4.57;;
22468;SDS011;11401;50.792;4.352;2023-04-07T01:02:09;11.20;;;4.05;;
22468;SDS011;11401;50.792;4.352;2023-04-07T01:04:53;8.27;;;4.30;;
22468;SDS011;11401;50.792;4.352;2023-04-07T01:07:38;7.53;;;4.70;;
22468;SDS011;11401;50.792;4.352;2023-04-07T01:10:29;7.43;;;4.72;;
22468;SDS011;11401;50.792;4.352;2023-04-07T01:16:08;5.40;;;4.55;;
22468;SDS011;11401;50.792;4.352;2023-04-07T01:18:43;5.97;;;4.80;;
22468;SDS011;11401;50.792;4.352;2023-04-07T01:21:13;7.38;;;4.60;;
22468;SDS011;11401;50.792;4.352;2023-04-07T01:26:39;11.07;;;5.07;;
22468;SDS011;11401;50.792;4.352;2023-04-07T01:32:08;10.18;;;5.13;;
22468;SDS011;11401;50.792;4.352;2023-04-07T01:34:37;9.13;;;5.40;;
22468;SDS011;11401;50.792;4.352;2023-04-07T01:37:06;7.57;;;4.80;;
22468;SDS011;11401;50.792;4.352;2023-04-07T01:39:35;8.48;;;4.88;;
22468;SDS011;11401;50.792;4.352;2023-04-07T01:42:03;8.73;;;5.78;;
22468;SDS011;11401;50.792;4.352;2023-04-07T01:44:31;9.32;;;5.25;;
22468;SDS011;11401;50.792;4.352;2023-04-07T01:46:59;7.28;;;5.30;;
22468;SDS011;11401;50.792;4.352;2023-04-07T01:49:29;7.63;;;5.38;;
22468;SDS011;11401;50.792;4.352;2023-04-07T01:51:57;8.50;;;4.60;;
22468;SDS011;11401;50.792;4.352;2023-04-07T01:54:25;10.27;;;5.50;;
22468;SDS011;11401;50.792;4.352;2023-04-07T01:56:53;5.57;;;4.47;;
22468;SDS011;11401;50.792;4.352;2023-04-07T01:59:22;5.30;;;4.70;;
22468;SDS011;11401;50.792;4.352;2023-04-07T02:01:52;7.93;;;5.45;;
22468;SDS011;11401;50.792;4.352;2023-04-07T02:07:30;6.90;;;5.15;;
22468;SDS011;11401;50.792;4.352;2023-04-07T02:10:04;10.48;;;5.60;;
22468;SDS011;11401;50.792;4.352;2023-04-07T02:12:36;10.30;;;5.57;;
22468;SDS011;11401;50.792;4.352;2023-04-07T02:15:11;7.70;;;5.38;;
22468;SDS011;11401;50.792;4.352;2023-04-07T02:17:42;5.75;;;4.70;;
22468;SDS011;11401;50.792;4.352;2023-04-07T02:20:14;6.22;;;4.65;;
22468;SDS011;11401;50.792;4.352;2023-04-07T02:22:42;6.28;;;4.88;;
22468;SDS011;11401;50.792;4.352;2023-04-07T02:28:06;10.15;;;4.85;;
22468;SDS011;11401;50.792;4.352;2023-04-07T02:30:33;9.20;;;5.07;;
22468;SDS011;11401;50.792;4.352;2023-04-07T02:33:01;5.40;;;4.90;;
22468;SDS011;11401;50.792;4.352;2023-04-07T02:35:28;7.65;;;4.85;;
22468;SDS011;11401;50.792;4.352;2023-04-07T02:37:55;8.10;;;5.13;;
22468;SDS011;11401;50.792;4.352;2023-04-07T02:40:22;7.20;;;5.07;;
22468;SDS011;11401;50.792;4.352;2023-04-07T02:42:52;7.25;;;5.25;;
22468;SDS011;11401;50.792;4.352;2023-04-07T02:45:21;8.65;;;5.28;;
22468;SDS011;11401;50.792;4.352;2023-04-07T02:47:48;5.35;;;4.53;;
22468;SDS011;11401;50.792;4.352;2023-04-07T02:50:16;7.57;;;5.07;;
22468;SDS011;11401;50.792;4.352;2023-04-07T02:52:43;5.57;;;4.38;;
22468;SDS011;11401;50.792;4.352;2023-04-07T02:55:13;6.53;;;4.55;;
22468;SDS011;11401;50.792;4.352;2023-04-07T02:57:40;6.38;;;4.60;;
22468;SDS011;11401;50.792;4.352;2023-04-07T03:00:16;7.60;;;4.70;;
22468;SDS011;11401;50.792;4.352;2023-04-07T03:02:59;7.30;;;4.50;;
22468;SDS011;11401;50.792;4.352;2023-04-07T03:05:30;4.60;;;4.15;;
22468;SDS011;11401;50.792;4.352;2023-04-07T03:07:59;4.85;;;4.45;;
22468;SDS011;11401;50.792;4.352;2023-04-07T03:10:27;5.13;;;3.85;;
22468;SDS011;11401;50.792;4.352;2023-04-07T03:12:54;4.22;;;3.83;;
22468;SDS011;11401;50.792;4.352;2023-04-07T03:15:21;7.63;;;4.28;;
22468;SDS011;11401;50.792;4.352;2023-04-07T03:17:49;8.25;;;4.32;;
22468;SDS011;11401;50.792;4.352;2023-04-07T03:20:18;5.15;;;3.97;;
22468;SDS011;11401;50.792;4.352;2023-04-07T03:22:45;5.68;;;3.95;;
22468;SDS011;11401;50.792;4.352;2023-04-07T03:25:20;5.45;;;4.95;;
22468;SDS011;11401;50.792;4.352;2023-04-07T03:27:48;6.32;;;4.10;;
22468;SDS011;11401;50.792;4.352;2023-04-07T03:30:15;7.63;;;4.25;;
22468;SDS011;11401;50.792;4.352;2023-04-07T03:32:44;4.18;;;3.88;;
22468;SDS011;11401;50.792;4.352;2023-04-07T03:35:11;6.32;;;4.45;;
22468;SDS011;11401;50.792;4.352;2023-04-07T03:37:38;4.65;;;3.83;;
22468;SDS011;11401;50.792;4.352;2023-04-07T03:40:11;5.32;;;4.07;;
22468;SDS011;11401;50.792;4.352;2023-04-07T03:42:39;8.73;;;4.10;;
22468;SDS011;11401;50.792;4.352;2023-04-07T03:45:06;4.53;;;4.10;;
22468;SDS011;11401;50.792;4.352;2023-04-07T03:47:38;4.95;;;3.83;;
22468;SDS011;11401;50.792;4.352;2023-04-07T03:50:05;4.90;;;3.97;;
22468;SDS011;11401;50.792;4.352;2023-04-07T03:52:39;7.68;;;4.20;;
22468;SDS011;11401;50.792;4.352;2023-04-07T03:55:18;6.38;;;4.32;;
22468;SDS011;11401;50.792;4.352;2023-04-07T03:57:45;8.10;;;4.75;;
22468;SDS011;11401;50.792;4.352;2023-04-07T04:00:14;4.68;;;4.00;;
22468;SDS011;11401;50.792;4.352;2023-04-07T04:02:41;6.90;;;4.75;;
22468;SDS011;11401;50.792;4.352;2023-04-07T04:05:13;5.82;;;4.28;;
22468;SDS011;11401;50.792;4.352;2023-04-07T04:07:41;4.65;;;4.00;;
22468;SDS011;11401;50.792;4.352;2023-04-07T04:10:08;5.90;;;4.43;;
22468;SDS011;11401;50.792;4.352;2023-04-07T04:12:40;8.05;;;4.40;;
22468;SDS011;11401;50.792;4.352;2023-04-07T04:15:11;6.95;;;4.90;;
22468;SDS011;11401;50.792;4.352;2023-04-07T04:17:38;7.45;;;4.68;;
22468;SDS011;11401;50.792;4.352;2023-04-07T04:20:07;8.85;;;5.53;;
22468;SDS011;11401;50.792;4.352;2023-04-07T04:22:42;9.15;;;5.07;;
22468;SDS011;11401;50.792;4.352;2023-04-07T04:25:10;9.55;;;6.05;;
22468;SDS011;11401;50.792;4.352;2023-04-07T04:27:41;9.07;;;5.40;;
22468;SDS011;11401;50.792;4.352;2023-04-07T04:30:15;7.63;;;4.95;;
22468;SDS011;11401;50.792;4.352;2023-04-07T04:32:48;7.05;;;5.88;;
22468;SDS011;11401;50.792;4.352;2023-04-07T04:35:20;9.15;;;5.82;;
22468;SDS011;11401;50.792;4.352;2023-04-07T04:38:09;9.23;;;5.65;;
22468;SDS011;11401;50.792;4.352;2023-04-07T04:40:40;13.05;;;6.20;;
22468;SDS011;11401;50.792;4.352;2023-04-07T04:43:07;8.02;;;5.80;;
22468;SDS011;11401;50.792;4.352;2023-04-07T04:45:36;10.90;;;6.18;;
22468;SDS011;11401;50.792;4.352;2023-04-07T04:48:05;14.13;;;7.25;;
22468;SDS011;11401;50.792;4.352;2023-04-07T04:50:32;11.93;;;6.70;;
22468;SDS011;11401;50.792;4.352;2023-04-07T04:53:03;11.32;;;6.50;;
22468;SDS011;11401;50.792;4.352;2023-04-07T04:55:30;10.90;;;6.22;;
22468;SDS011;11401;50.792;4.352;2023-04-07T04:57:58;15.63;;;8.43;;
22468;SDS011;11401;50.792;4.352;2023-04-07T05:00:43;15.55;;;7.88;;
22468;SDS011;11401;50.792;4.352;2023-04-07T05:03:10;13.35;;;8.10;;
22468;SDS011;11401;50.792;4.352;2023-04-07T05:05:41;15.45;;;8.55;;
22468;SDS011;11401;50.792;4.352;2023-04-07T05:08:09;15.00;;;8.27;;
22468;SDS011;11401;50.792;4.352;2023-04-07T05:10:38;13.38;;;7.70;;
22468;SDS011;11401;50.792;4.352;2023-04-07T05:13:10;23.02;;;10.85;;
22468;SDS011;11401;50.792;4.352;2023-04-07T05:15:39;14.93;;;9.07;;
22468;SDS011;11401;50.792;4.352;2023-04-07T05:18:09;17.35;;;10.85;;
22468;SDS011;11401;50.792;4.352;2023-04-07T05:20:37;18.80;;;10.65;;
22468;SDS011;11401;50.792;4.352;2023-04-07T05:23:05;15.90;;;9.65;;
22468;SDS011;11401;50.792;4.352;2023-04-07T05:25:34;19.63;;;9.90;;
22468;SDS011;11401;50.792;4.352;2023-04-07T05:28:03;24.95;;;10.05;;
22468;SDS011;11401;50.792;4.352;2023-04-07T05:30:31;20.60;;;10.23;;
22468;SDS011;11401;50.792;4.352;2023-04-07T05:32:59;19.63;;;10.40;;
22468;SDS011;11401;50.792;4.352;2023-04-07T05:35:36;17.48;;;9.55;;
22468;SDS011;11401;50.792;4.352;2023-04-07T05:38:04;23.42;;;10.18;;
22468;SDS011;11401;50.792;4.352;2023-04-07T05:40:31;25.10;;;10.70;;
22468;SDS011;11401;50.792;4.352;2023-04-07T05:43:02;18.20;;;10.40;;
22468;SDS011;11401;50.792;4.352;2023-04-07T05:45:31;30.55;;;12.07;;
22468;SDS011;11401;50.792;4.352;2023-04-07T05:47:59;21.13;;;11.07;;
22468;SDS011;11401;50.792;4.352;2023-04-07T05:50:35;21.25;;;11.07;;
22468;SDS011;11401;50.792;4.352;2023-04-07T05:53:06;24.40;;;10.57;;
22468;SDS011;11401;50.792;4.352;2023-04-07T05:55:33;21.33;;;10.32;;
22468;SDS011;11401;50.792;4.352;2023-04-07T05:58:01;17.63;;;10.38;;
22468;SDS011;11401;50.792;4.352;2023-04-07T06:00:30;21.02;;;10.35;;
22468;SDS011;11401;50.792;4.352;2023-04-07T06:03:05;22.05;;;10.18;;
22468;SDS011;11401;50.792;4.352;2023-04-07T06:05:44;23.65;;;10.57;;
22468;SDS011;11401;50.792;4.352;2023-04-07T06:08:18;22.90;;;11.05;;
22468;SDS011;11401;50.792;4.352;2023-04-07T06:10:45;23.83;;;11.75;;
22468;SDS011;11401;50.792;4.352;2023-04-07T06:13:12;23.73;;;12.05;;
22468;SDS011;11401;50.792;4.352;2023-04-07T06:15:39;21.58;;;11.63;;
22468;SDS011;11401;50.792;4.352;2023-04-07T06:18:06;24.15;;;12.40;;
22468;SDS011;11401;50.792;4.352;2023-04-07T06:20:33;26.75;;;12.73;;
22468;SDS011;11401;50.792;4.352;2023-04-07T06:23:01;23.70;;;10.55;;
22468;SDS011;11401;50.792;4.352;2023-04-07T06:25:27;21.17;;;11.20;;
22468;SDS011;11401;50.792;4.352;2023-04-07T06:27:54;22.70;;;10.60;;
22468;SDS011;11401;50.792;4.352;2023-04-07T06:30:22;19.02;;;10.63;;
22468;SDS011;11401;50.792;4.352;2023-04-07T06:32:49;24.92;;;11.32;;
22468;SDS011;11401;50.792;4.352;2023-04-07T06:35:17;21.73;;;11.82;;
22468;SDS011;11401;50.792;4.352;2023-04-07T06:37:44;19.35;;;11.32;;
22468;SDS011;11401;50.792;4.352;2023-04-07T06:40:11;22.63;;;10.52;;
22468;SDS011;11401;50.792;4.352;2023-04-07T06:42:38;24.27;;;12.38;;
22468;SDS011;11401;50.792;4.352;2023-04-07T06:45:14;21.08;;;10.65;;
22468;SDS011;11401;50.792;4.352;2023-04-07T06:47:41;20.83;;;12.43;;
22468;SDS011;11401;50.792;4.352;2023-04-07T06:50:08;21.40;;;11.93;;
22468;SDS011;11401;50.792;4.352;2023-04-07T06:52:36;19.00;;;11.60;;
22468;SDS011;11401;50.792;4.352;2023-04-07T06:55:03;20.83;;;11.32;;
22468;SDS011;11401;50.792;4.352;2023-04-07T06:57:30;24.80;;;12.13;;
22468;SDS011;11401;50.792;4.352;2023-04-07T06:59:57;21.60;;;12.07;;
22468;SDS011;11401;50.792;4.352;2023-04-07T07:02:24;21.80;;;10.98;;
22468;SDS011;11401;50.792;4.352;2023-04-07T07:04:51;22.05;;;11.32;;
22468;SDS011;11401;50.792;4.352;2023-04-07T07:07:18;17.08;;;9.88;;
22468;SDS011;11401;50.792;4.352;2023-04-07T07:09:45;20.00;;;10.68;;
22468;SDS011;11401;50.792;4.352;2023-04-07T07:12:12;19.80;;;10.65;;
22468;SDS011;11401;50.792;4.352;2023-04-07T07:14:40;18.50;;;11.07;;
22468;SDS011;11401;50.792;4.352;2023-04-07T07:17:07;17.40;;;10.07;;
22468;SDS011;11401;50.792;4.352;2023-04-07T07:19:34;15.50;;;8.35;;
22468;SDS011;11401;50.792;4.352;2023-04-07T07:22:01;20.50;;;9.55;;
22468;SDS011;11401;50.792;4.352;2023-04-07T07:24:31;18.27;;;10.00;;
22468;SDS011;11401;50.792;4.352;2023-04-07T07:26:59;23.40;;;10.68;;
22468;SDS011;11401;50.792;4.352;2023-04-07T07:29:27;17.58;;;9.95;;
22468;SDS011;11401;50.792;4.352;2023-04-07T07:31:54;15.30;;;8.65;;
22468;SDS011;11401;50.792;4.352;2023-04-07T07:34:21;14.60;;;8.13;;
22468;SDS011;11401;50.792;4.352;2023-04-07T07:36:48;12.20;;;7.47;;
22468;SDS011;11401;50.792;4.352;2023-04-07T07:39:15;14.60;;;7.63;;
22468;SDS011;11401;50.792;4.352;2023-04-07T07:41:42;13.88;;;7.68;;
22468;SDS011;11401;50.792;4.352;2023-04-07T07:44:09;11.63;;;7.72;;
22468;SDS011;11401;50.792;4.352;2023-04-07T07:46:38;16.27;;;7.57;;
22468;SDS011;11401;50.792;4.352;2023-04-07T07:49:05;15.35;;;7.25;;
22468;SDS011;11401;50.792;4.352;2023-04-07T07:51:32;11.38;;;6.03;;
22468;SDS011;11401;50.792;4.352;2023-04-07T07:53:59;11.07;;;6.18;;
22468;SDS011;11401;50.792;4.352;2023-04-07T07:56:26;8.52;;;6.15;;
22468;SDS011;11401;50.792;4.352;2023-04-07T07:58:53;9.57;;;6.05;;
22468;SDS011;11401;50.792;4.352;2023-04-07T08:01:21;9.25;;;5.80;;
22468;SDS011;11401;50.792;4.352;2023-04-07T08:03:48;14.00;;;5.40;;
22468;SDS011;11401;50.792;4.352;2023-04-07T08:06:16;9.07;;;5.30;;
22468;SDS011;11401;50.792;4.352;2023-04-07T08:08:43;11.35;;;5.65;;
22468;SDS011;11401;50.792;4.352;2023-04-07T08:11:10;12.55;;;5.78;;
22468;SDS011;11401;50.792;4.352;2023-04-07T08:13:37;13.35;;;5.47;;
22468;SDS011;11401;50.792;4.352;2023-04-07T08:16:04;9.18;;;5.40;;
22468;SDS011;11401;50.792;4.352;2023-04-07T08:18:32;6.80;;;4.90;;
22468;SDS011;11401;50.792;4.352;2023-04-07T08:20:59;8.43;;;5.15;;
22468;SDS011;11401;50.792;4.352;2023-04-07T08:23:26;10.18;;;5.78;;
22468;SDS011;11401;50.792;4.352;2023-04-07T08:25:53;8.95;;;4.28;;
22468;SDS011;11401;50.792;4.352;2023-04-07T08:28:20;8.18;;;4.15;;
22468;SDS011;11401;50.792;4.352;2023-04-07T08:30:48;8.85;;;4.78;;
22468;SDS011;11401;50.792;4.352;2023-04-07T08:33:15;10.93;;;4.88;;
22468;SDS011;11401;50.792;4.352;2023-04-07T08:35:42;6.97;;;4.90;;
22468;SDS011;11401;50.792;4.352;2023-04-07T08:38:09;8.77;;;4.38;;
22468;SDS011;11401;50.792;4.352;2023-04-07T08:40:36;6.28;;;4.03;;
22468;SDS011;11401;50.792;4.352;2023-04-07T08:43:07;6.75;;;3.63;;
22468;SDS011;11401;50.792;4.352;2023-04-07T08:45:37;8.60;;;4.03;;
22468;SDS011;11401;50.792;4.352;2023-04-07T08:48:08;9.23;;;3.85;;
22468;SDS011;11401;50.792;4.352;2023-04-07T08:50:43;5.50;;;3.75;;
22468;SDS011;11401;50.792;4.352;2023-04-07T08:53:12;6.18;;;3.92;;
22468;SDS011;11401;50.792;4.352;2023-04-07T08:55:41;7.15;;;3.13;;
22468;SDS011;11401;50.792;4.352;2023-04-07T08:58:08;4.15;;;3.42;;
22468;SDS011;11401;50.792;4.352;2023-04-07T09:00:39;11.98;;;4.07;;
22468;SDS011;11401;50.792;4.352;2023-04-07T09:03:11;6.68;;;3.22;;
22468;SDS011;11401;50.792;4.352;2023-04-07T09:05:39;3.22;;;2.92;;
22468;SDS011;11401;50.792;4.352;2023-04-07T09:08:06;6.15;;;3.72;;
22468;SDS011;11401;50.792;4.352;2023-04-07T09:10:33;5.50;;;3.00;;
22468;SDS011;11401;50.792;4.352;2023-04-07T09:13:02;7.50;;;3.63;;
22468;SDS011;11401;50.792;4.352;2023-04-07T09:15:29;8.85;;;4.07;;
22468;SDS011;11401;50.792;4.352;2023-04-07T09:17:57;8.18;;;4.07;;
22468;SDS011;11401;50.792;4.352;2023-04-07T09:20:25;7.47;;;3.67;;
22468;SDS011;11401;50.792;4.352;2023-04-07T09:22:52;10.85;;;4.07;;
22468;SDS011;11401;50.792;4.352;2023-04-07T09:25:20;5.88;;;3.70;;
22468;SDS011;11401;50.792;4.352;2023-04-07T09:28:01;5.70;;;3.85;;
22468;SDS011;11401;50.792;4.352;2023-04-07T09:30:29;5.05;;;3.67;;
22468;SDS011;11401;50.792;4.352;2023-04-07T09:32:59;3.50;;;2.42;;
22468;SDS011;11401;50.792;4.352;2023-04-07T09:35:27;9.00;;;3.22;;
22468;SDS011;11401;50.792;4.352;2023-04-07T09:38:01;3.83;;;2.95;;
22468;SDS011;11401;50.792;4.352;2023-04-07T09:40:30;5.20;;;2.28;;
22468;SDS011;11401;50.792;4.352;2023-04-07T09:42:58;8.43;;;2.40;;
22468;SDS011;11401;50.792;4.352;2023-04-07T09:45:28;2.80;;;1.88;;
22468;SDS011;11401;50.792;4.352;2023-04-07T09:48:04;6.32;;;1.98;;
22468;SDS011;11401;50.792;4.352;2023-04-07T09:50:34;5.47;;;2.20;;
22468;SDS011;11401;50.792;4.352;2023-04-07T09:53:07;3.50;;;1.67;;
22468;SDS011;11401;50.792;4.352;2023-04-07T09:55:34;5.10;;;1.70;;
22468;SDS011;11401;50.792;4.352;2023-04-07T09:58:02;4.80;;;2.17;;
22468;SDS011;11401;50.792;4.352;2023-04-07T10:00:31;4.70;;;1.80;;
22468;SDS011;11401;50.792;4.352;2023-04-07T10:03:00;2.80;;;1.42;;
22468;SDS011;11401;50.792;4.352;2023-04-07T10:05:29;4.55;;;1.60;;
22468;SDS011;11401;50.792;4.352;2023-04-07T10:07:57;4.10;;;1.70;;
22468;SDS011;11401;50.792;4.352;2023-04-07T10:10:27;2.33;;;1.63;;
22468;SDS011;11401;50.792;4.352;2023-04-07T10:12:57;7.10;;;1.70;;
22468;SDS011;11401;50.792;4.352;2023-04-07T10:15:24;4.63;;;1.70;;
22468;SDS011;11401;50.792;4.352;2023-04-07T10:17:51;5.72;;;1.92;;
22468;SDS011;11401;50.792;4.352;2023-04-07T10:20:22;4.65;;;2.03;;
22468;SDS011;11401;50.792;4.352;2023-04-07T10:22:50;3.53;;;1.50;;
22468;SDS011;11401;50.792;4.352;2023-04-07T10:25:20;3.13;;;1.48;;
22468;SDS011;11401;50.792;4.352;2023-04-07T10:27:54;1.75;;;1.33;;
22468;SDS011;11401;50.792;4.352;2023-04-07T10:30:30;3.92;;;1.70;;
22468;SDS011;11401;50.792;4.352;2023-04-07T10:32:58;1.45;;;1.38;;
22468;SDS011;11401;50.792;4.352;2023-04-07T10:35:26;1.48;;;1.38;;
22468;SDS011;11401;50.792;4.352;2023-04-07T10:40:39;2.22;;;1.30;;
22468;SDS011;11401;50.792;4.352;2023-04-07T10:43:07;3.08;;;1.70;;
22468;SDS011;11401;50.792;4.352;2023-04-07T10:48:17;4.60;;;2.15;;
22468;SDS011;11401;50.792;4.352;2023-04-07T10:50:45;6.05;;;1.95;;
22468;SDS011;11401;50.792;4.352;2023-04-07T10:53:37;6.05;;;2.15;;
22468;SDS011;11401;50.792;4.352;2023-04-07T10:59:29;7.20;;;2.90;;
22468;SDS011;11401;50.792;4.352;2023-04-07T11:04:40;4.35;;;2.30;;
22468;SDS011;11401;50.792;4.352;2023-04-07T11:07:09;3.97;;;1.65;;
22468;SDS011;11401;50.792;4.352;2023-04-07T11:09:37;4.70;;;2.20;;
22468;SDS011;11401;50.792;4.352;2023-04-07T11:12:04;3.97;;;1.80;;
22468;SDS011;11401;50.792;4.352;2023-04-07T11:14:32;6.78;;;2.65;;
22468;SDS011;11401;50.792;4.352;2023-04-07T11:17:02;4.05;;;2.33;;
22468;SDS011;11401;50.792;4.352;2023-04-07T11:19:29;3.20;;;2.03;;
22468;SDS011;11401;50.792;4.352;2023-04-07T11:22:15;5.18;;;2.30;;
22468;SDS011;11401;50.792;4.352;2023-04-07T11:24:55;4.03;;;2.28;;
22468;SDS011;11401;50.792;4.352;2023-04-07T11:27:22;4.18;;;2.45;;
22468;SDS011;11401;50.792;4.352;2023-04-07T11:29:50;8.43;;;3.13;;
22468;SDS011;11401;50.792;4.352;2023-04-07T11:32:21;4.70;;;2.33;;
22468;SDS011;11401;50.792;4.352;2023-04-07T11:34:51;7.55;;;2.58;;
22468;SDS011;11401;50.792;4.352;2023-04-07T11:37:25;4.15;;;2.33;;
22468;SDS011;11401;50.792;4.352;2023-04-07T11:39:54;5.97;;;2.42;;
22468;SDS011;11401;50.792;4.352;2023-04-07T11:45:03;4.57;;;2.53;;
22468;SDS011;11401;50.792;4.352;2023-04-07T11:47:36;4.18;;;2.22;;
22468;SDS011;11401;50.792;4.352;2023-04-07T11:50:05;3.90;;;2.08;;
22468;SDS011;11401;50.792;4.352;2023-04-07T11:52:42;6.13;;;1.85;;
22468;SDS011;11401;50.792;4.352;2023-04-07T11:55:20;6.85;;;2.40;;
22468;SDS011;11401;50.792;4.352;2023-04-07T11:57:49;2.75;;;1.75;;
22468;SDS011;11401;50.792;4.352;2023-04-07T12:00:18;4.55;;;2.10;;
22468;SDS011;11401;50.792;4.352;2023-04-07T12:02:45;8.10;;;2.38;;
22468;SDS011;11401;50.792;4.352;2023-04-07T12:05:13;3.90;;;2.78;;
22468;SDS011;11401;50.792;4.352;2023-04-07T12:07:50;5.65;;;2.80;;
22468;SDS011;11401;50.792;4.352;2023-04-07T12:10:19;5.30;;;2.70;;
22468;SDS011;11401;50.792;4.352;2023-04-07T12:12:51;6.78;;;2.92;;
22468;SDS011;11401;50.792;4.352;2023-04-07T12:15:20;5.60;;;2.53;;
22468;SDS011;11401;50.792;4.352;2023-04-07T12:17:47;8.82;;;2.75;;
22468;SDS011;11401;50.792;4.352;2023-04-07T12:20:14;5.47;;;2.78;;
22468;SDS011;11401;50.792;4.352;2023-04-07T12:22:41;5.43;;;2.38;;
22468;SDS011;11401;50.792;4.352;2023-04-07T12:25:08;4.85;;;2.75;;
22468;SDS011;11401;50.792;4.352;2023-04-07T12:27:36;8.55;;;2.70;;
22468;SDS011;11401;50.792;4.352;2023-04-07T12:30:09;9.80;;;3.42;;
22468;SDS011;11401;50.792;4.352;2023-04-07T12:32:38;9.07;;;2.97;;
22468;SDS011;11401;50.792;4.352;2023-04-07T12:35:06;6.63;;;2.75;;
22468;SDS011;11401;50.792;4.352;2023-04-07T12:37:33;6.63;;;3.05;;
22468;SDS011;11401;50.792;4.352;2023-04-07T12:40:00;5.10;;;2.35;;
22468;SDS011;11401;50.792;4.352;2023-04-07T12:42:27;7.35;;;2.80;;
22468;SDS011;11401;50.792;4.352;2023-04-07T12:44:54;6.35;;;2.45;;
22468;SDS011;11401;50.792;4.352;2023-04-07T12:47:22;11.73;;;3.00;;
22468;SDS011;11401;50.792;4.352;2023-04-07T12:49:49;2.90;;;2.50;;
22468;SDS011;11401;50.792;4.352;2023-04-07T12:52:16;7.03;;;2.42;;
22468;SDS011;11401;50.792;4.352;2023-04-07T12:54:43;4.18;;;2.50;;
22468;SDS011;11401;50.792;4.352;2023-04-07T12:57:10;5.63;;;3.03;;
22468;SDS011;11401;50.792;4.352;2023-04-07T12:59:38;1.55;;;1.45;;
22468;SDS011;11401;50.792;4.352;2023-04-07T13:02:05;7.80;;;2.67;;
22468;SDS011;11401;50.792;4.352;2023-04-07T13:04:33;7.22;;;3.00;;
22468;SDS011;11401;50.792;4.352;2023-04-07T13:07:01;6.57;;;2.58;;
22468;SDS011;11401;50.792;4.352;2023-04-07T13:09:28;8.73;;;3.10;;
22468;SDS011;11401;50.792;4.352;2023-04-07T13:11:55;7.07;;;2.85;;
22468;SDS011;11401;50.792;4.352;2023-04-07T13:14:23;4.10;;;3.00;;
22468;SDS011;11401;50.792;4.352;2023-04-07T13:16:51;2.80;;;2.58;;
22468;SDS011;11401;50.792;4.352;2023-04-07T13:19:18;5.80;;;2.95;;
22468;SDS011;11401;50.792;4.352;2023-04-07T13:21:45;6.78;;;3.13;;
22468;SDS011;11401;50.792;4.352;2023-04-07T13:24:14;4.25;;;2.83;;
22468;SDS011;11401;50.792;4.352;2023-04-07T13:26:41;3.08;;;2.38;;
22468;SDS011;11401;50.792;4.352;2023-04-07T13:29:08;4.95;;;2.42;;
22468;SDS011;11401;50.792;4.352;2023-04-07T13:31:35;2.90;;;2.00;;
22468;SDS011;11401;50.792;4.352;2023-04-07T13:34:02;5.68;;;2.67;;
22468;SDS011;11401;50.792;4.352;2023-04-07T13:36:29;7.05;;;3.08;;
22468;SDS011;11401;50.792;4.352;2023-04-07T13:38:56;8.82;;;2.67;;
22468;SDS011;11401;50.792;4.352;2023-04-07T13:41:23;7.50;;;2.58;;
22468;SDS011;11401;50.792;4.352;2023-04-07T13:43:52;4.35;;;2.95;;
22468;SDS011;11401;50.792;4.352;2023-04-07T13:46:19;5.35;;;2.53;;
22468;SDS011;11401;50.792;4.352;2023-04-07T13:48:54;2.88;;;2.20;;
22468;SDS011;11401;50.792;4.352;2023-04-07T13:51:21;3.25;;;1.70;;
22468;SDS011;11401;50.792;4.352;2023-04-07T13:53:48;3.65;;;2.45;;
22468;SDS011;11401;50.792;4.352;2023-04-07T13:56:16;4.80;;;2.33;;
22468;SDS011;11401;50.792;4.352;2023-04-07T13:58:43;3.35;;;2.33;;
22468;SDS011;11401;50.792;4.352;2023-04-07T14:01:10;2.50;;;2.00;;
22468;SDS011;11401;50.792;4.352;2023-04-07T14:03:37;7.47;;;2.50;;
22468;SDS011;11401;50.792;4.352;2023-04-07T14:06:04;6.47;;;2.28;;
22468;SDS011;11401;50.792;4.352;2023-04-07T14:08:31;4.43;;;2.50;;
22468;SDS011;11401;50.792;4.352;2023-04-07T14:10:58;4.00;;;2.22;;
22468;SDS011;11401;50.792;4.352;2023-04-07T14:13:25;4.32;;;2.58;;
22468;SDS011;11401;50.792;4.352;2023-04-07T14:15:52;3.22;;;2.00;;
22468;SDS011;11401;50.792;4.352;2023-04-07T14:18:19;5.57;;;1.90;;
22468;SDS011;11401;50.792;4.352;2023-04-07T14:20:46;5.35;;;2.47;;
22468;SDS011;11401;50.792;4.352;2023-04-07T14:23:13;4.07;;;2.33;;
22468;SDS011;11401;50.792;4.352;2023-04-07T14:25:51;6.15;;;2.17;;
22468;SDS011;11401;50.792;4.352;2023-04-07T14:28:18;5.13;;;1.98;;
22468;SDS011;11401;50.792;4.352;2023-04-07T14:30:46;7.22;;;2.72;;
22468;SDS011;11401;50.792;4.352;2023-04-07T14:33:13;3.42;;;1.60;;
22468;SDS011;11401;50.792;4.352;2023-04-07T14:35:42;5.07;;;2.00;;
22468;SDS011;11401;50.792;4.352;2023-04-07T14:38:09;5.80;;;2.45;;
22468;SDS011;11401;50.792;4.352;2023-04-07T14:40:36;3.70;;;1.92;;
22468;SDS011;11401;50.792;4.352;2023-04-07T14:43:03;7.25;;;2.90;;
22468;SDS011;11401;50.792;4.352;2023-04-07T14:45:33;5.28;;;3.00;;
22468;SDS011;11401;50.792;4.352;2023-04-07T14:48:01;8.27;;;2.90;;
22468;SDS011;11401;50.792;4.352;2023-04-07T14:50:30;6.47;;;3.20;;
22468;SDS011;11401;50.792;4.352;2023-04-07T14:52:59;3.40;;;2.60;;
22468;SDS011;11401;50.792;4.352;2023-04-07T14:55:26;4.03;;;2.75;;
22468;SDS011;11401;50.792;4.352;2023-04-07T14:57:53;4.60;;;2.53;;
22468;SDS011;11401;50.792;4.352;2023-04-07T15:00:20;2.67;;;2.22;;
22468;SDS011;11401;50.792;4.352;2023-04-07T15:02:47;5.07;;;2.67;;
22468;SDS011;11401;50.792;4.352;2023-04-07T15:05:15;5.25;;;2.30;;
22468;SDS011;11401;50.792;4.352;2023-04-07T15:07:42;3.80;;;2.10;;
22468;SDS011;11401;50.792;4.352;2023-04-07T15:10:11;5.78;;;1.90;;
22468;SDS011;11401;50.792;4.352;2023-04-07T15:12:38;1.75;;;1.65;;
22468;SDS011;11401;50.792;4.352;2023-04-07T15:15:05;7.25;;;3.53;;
22468;SDS011;11401;50.792;4.352;2023-04-07T15:17:32;2.17;;;1.70;;
22468;SDS011;11401;50.792;4.352;2023-04-07T15:20:09;2.55;;;1.67;;
22468;SDS011;11401;50.792;4.352;2023-04-07T15:22:38;5.72;;;2.20;;